sensor_id;sensor_type;location;lat;lon;timestamp;pressure;altitude;pressure_sealevel;temperature;humidity
29383;BME280;16365;51.598;7.668;2022-12-24T00:03:32;99842.78;;;16.64;54.00
29383;BME280;16365;51.598;7.668;2022-12-24T00:06:03;99845.56;;;16.64;53.85
29383;BME280;16365;51.598;7.668;2022-12-24T00:08:30;99835.16;;;16.68;54.37
29383;BME280;16365;51.598;7.668;2022-12-24T00:10:56;99856.75;;;16.67;53.91
29383;BME280;16365;51.598;7.668;2022-12-24T00:13:23;99852.78;;;16.68;54.20
29383;BME280;16365;51.598;7.668;2022-12-24T00:15:50;99855.19;;;16.70;53.96
29383;BME280;16365;51.598;7.668;2022-12-24T00:18:16;99875.19;;;16.68;53.42
29383;BME280;16365;51.598;7.668;2022-12-24T00:20:49;99871.94;;;16.63;53.53
29383;BME280;16365;51.598;7.668;2022-12-24T00:23:16;99883.91;;;16.60;53.58
29383;BME280;16365;51.598;7.668;2022-12-24T00:25:43;99895.06;;;16.56;53.55
29383;BME280;16365;51.598;7.668;2022-12-24T00:28:11;99891.84;;;16.51;53.96
29383;BME280;16365;51.598;7.668;2022-12-24T00:30:39;99896.19;;;16.44;54.04
29383;BME280;16365;51.598;7.668;2022-12-24T00:33:06;99899.34;;;16.39;54.11
29383;BME280;16365;51.598;7.668;2022-12-24T00:35:36;99900.09;;;16.33;54.39
29383;BME280;16365;51.598;7.668;2022-12-24T00:38:03;99900.88;;;16.30;54.16
29383;BME280;16365;51.598;7.668;2022-12-24T00:40:30;99906.81;;;16.25;54.25
29383;BME280;16365;51.598;7.668;2022-12-24T00:42:57;99925.56;;;16.21;54.28
29383;BME280;16365;51.598;7.668;2022-12-24T00:45:24;99931.13;;;16.17;54.70
29383;BME280;16365;51.598;7.668;2022-12-24T00:47:52;99925.13;;;16.15;54.76
29383;BME280;16365;51.598;7.668;2022-12-24T00:50:18;99916.69;;;16.11;54.52
29383;BME280;16365;51.598;7.668;2022-12-24T00:52:45;99917.06;;;16.10;54.59
29383;BME280;16365;51.598;7.668;2022-12-24T00:55:11;99914.25;;;16.10;54.82
29383;BME280;16365;51.598;7.668;2022-12-24T00:57:37;99918.63;;;16.07;54.85
29383;BME280;16365;51.598;7.668;2022-12-24T01:00:04;99927.44;;;16.09;54.70
29383;BME280;16365;51.598;7.668;2022-12-24T01:02:31;99925.84;;;16.08;54.93
29383;BME280;16365;51.598;7.668;2022-12-24T01:04:58;99937.47;;;16.10;54.65
29383;BME280;16365;51.598;7.668;2022-12-24T01:07:40;99940.66;;;16.12;54.59
29383;BME280;16365;51.598;7.668;2022-12-24T01:10:10;99944.72;;;16.18;54.31
29383;BME280;16365;51.598;7.668;2022-12-24T01:12:37;99951.91;;;16.19;54.35
29383;BME280;16365;51.598;7.668;2022-12-24T01:15:04;99942.34;;;16.21;54.44
29383;BME280;16365;51.598;7.668;2022-12-24T01:17:32;99948.34;;;16.23;54.20
29383;BME280;16365;51.598;7.668;2022-12-24T01:19:58;99953.53;;;16.24;54.01
29383;BME280;16365;51.598;7.668;2022-12-24T01:22:25;99956.78;;;16.26;54.09
29383;BME280;16365;51.598;7.668;2022-12-24T01:24:51;99966.38;;;16.29;54.12
29383;BME280;16365;51.598;7.668;2022-12-24T01:27:19;99983.19;;;16.32;53.85
29383;BME280;16365;51.598;7.668;2022-12-24T01:29:45;99979.22;;;16.33;53.80
29383;BME280;16365;51.598;7.668;2022-12-24T01:32:12;99983.25;;;16.36;53.50
29383;BME280;16365;51.598;7.668;2022-12-24T01:34:38;99978.06;;;16.38;53.72
29383;BME280;16365;51.598;7.668;2022-12-24T01:37:05;99988.88;;;16.39;53.60
29383;BME280;16365;51.598;7.668;2022-12-24T01:39:31;99999.69;;;16.41;53.10
29383;BME280;16365;51.598;7.668;2022-12-24T01:41:58;99995.69;;;16.42;53.22
29383;BME280;16365;51.598;7.668;2022-12-24T01:44:46;100000.88;;;16.43;52.67
29383;BME280;16365;51.598;7.668;2022-12-24T01:47:26;100010.91;;;16.44;52.62
29383;BME280;16365;51.598;7.668;2022-12-24T01:49:58;100002.53;;;16.44;52.92
29383;BME280;16365;51.598;7.668;2022-12-24T01:52:29;100008.91;;;16.45;52.62
29383;BME280;16365;51.598;7.668;2022-12-24T01:55:01;100006.13;;;16.45;52.30
29383;BME280;16365;51.598;7.668;2022-12-24T01:57:42;100014.88;;;16.43;52.12
29383;BME280;16365;51.598;7.668;2022-12-24T02:00:13;100006.13;;;16.45;52.24
29383;BME280;16365;51.598;7.668;2022-12-24T02:02:40;100014.91;;;16.47;52.41
29383;BME280;16365;51.598;7.668;2022-12-24T02:05:34;100011.31;;;16.47;52.16
29383;BME280;16365;51.598;7.668;2022-12-24T02:08:03;100021.31;;;16.48;52.66
29383;BME280;16365;51.598;7.668;2022-12-24T02:10:30;100017.72;;;16.47;52.80
29383;BME280;16365;51.598;7.668;2022-12-24T02:12:57;100034.91;;;16.45;52.35
29383;BME280;16365;51.598;7.668;2022-12-24T02:15:27;100024.09;;;16.44;52.48
29383;BME280;16365;51.598;7.668;2022-12-24T02:18:18;100024.88;;;16.41;52.08
29383;BME280;16365;51.598;7.668;2022-12-24T02:31:48;100051.59;;;16.38;51.90
29383;BME280;16365;51.598;7.668;2022-12-24T02:34:38;100055.19;;;16.35;51.85
29383;BME280;16365;51.598;7.668;2022-12-24T02:37:11;100052.38;;;16.35;52.17
29383;BME280;16365;51.598;7.668;2022-12-24T02:42:08;100071.53;;;16.33;51.95
29383;BME280;16365;51.598;7.668;2022-12-24T02:44:44;100071.88;;;16.28;51.46
29383;BME280;16365;51.598;7.668;2022-12-24T02:47:13;100075.06;;;16.27;52.04
29383;BME280;16365;51.598;7.668;2022-12-24T02:49:42;100079.41;;;16.24;52.17
29383;BME280;16365;51.598;7.668;2022-12-24T02:54:56;100098.16;;;16.20;51.70
29383;BME280;16365;51.598;7.668;2022-12-24T03:00:21;100095.28;;;16.13;51.74
29383;BME280;16365;51.598;7.668;2022-12-24T03:03:18;100089.22;;;16.07;51.37
29383;BME280;16365;51.598;7.668;2022-12-24T03:08:43;100096.00;;;16.06;51.84
29383;BME280;16365;51.598;7.668;2022-12-24T03:11:14;100107.53;;;16.05;52.18
29383;BME280;16365;51.598;7.668;2022-12-24T03:13:42;100097.56;;;16.04;51.71
29383;BME280;16365;51.598;7.668;2022-12-24T03:16:12;100109.50;;;16.01;51.72
29383;BME280;16365;51.598;7.668;2022-12-24T03:18:43;100101.47;;;15.99;51.86
29383;BME280;16365;51.598;7.668;2022-12-24T03:21:16;100113.84;;;15.98;51.69
29383;BME280;16365;51.598;7.668;2022-12-24T03:23:46;100111.88;;;15.99;51.93
29383;BME280;16365;51.598;7.668;2022-12-24T03:26:16;100109.84;;;15.96;51.55
29383;BME280;16365;51.598;7.668;2022-12-24T03:28:44;100111.41;;;15.93;51.57
29383;BME280;16365;51.598;7.668;2022-12-24T03:31:11;100116.56;;;15.91;51.85
29383;BME280;16365;51.598;7.668;2022-12-24T03:33:38;100123.31;;;15.90;52.07
29383;BME280;16365;51.598;7.668;2022-12-24T03:36:06;100120.91;;;15.88;51.90
29383;BME280;16365;51.598;7.668;2022-12-24T03:38:33;100128.50;;;15.88;51.94
29383;BME280;16365;51.598;7.668;2022-12-24T03:40:59;100126.09;;;15.86;51.95
29383;BME280;16365;51.598;7.668;2022-12-24T03:43:26;100130.06;;;15.85;51.68
29383;BME280;16365;51.598;7.668;2022-12-24T03:45:52;100132.84;;;15.85;51.85
29383;BME280;16365;51.598;7.668;2022-12-24T03:48:18;100140.44;;;15.85;51.74
29383;BME280;16365;51.598;7.668;2022-12-24T03:50:45;100143.19;;;15.81;51.61
29383;BME280;16365;51.598;7.668;2022-12-24T03:53:11;100153.53;;;15.81;51.83
29383;BME280;16365;51.598;7.668;2022-12-24T03:55:38;100151.94;;;15.80;52.25
29383;BME280;16365;51.598;7.668;2022-12-24T03:58:05;100149.16;;;15.80;52.16
29383;BME280;16365;51.598;7.668;2022-12-24T04:00:31;100161.94;;;15.81;52.24
29383;BME280;16365;51.598;7.668;2022-12-24T04:02:58;100152.38;;;15.82;52.26
29383;BME280;16365;51.598;7.668;2022-12-24T04:05:24;100156.41;;;15.84;52.24
29383;BME280;16365;51.598;7.668;2022-12-24T04:07:51;100160.44;;;15.87;52.35
29383;BME280;16365;51.598;7.668;2022-12-24T04:10:17;100158.06;;;15.89;52.19
29383;BME280;16365;51.598;7.668;2022-12-24T04:12:44;100166.50;;;15.92;52.36
29383;BME280;16365;51.598;7.668;2022-12-24T04:15:10;100173.31;;;15.95;52.15
29383;BME280;16365;51.598;7.668;2022-12-24T04:17:37;100164.56;;;15.97;52.19
29383;BME280;16365;51.598;7.668;2022-12-24T04:20:04;100166.97;;;15.98;52.26
29383;BME280;16365;51.598;7.668;2022-12-24T04:22:31;100163.81;;;16.00;52.49
29383;BME280;16365;51.598;7.668;2022-12-24T04:24:57;100169.84;;;16.02;51.98
29383;BME280;16365;51.598;7.668;2022-12-24T04:27:24;100170.25;;;16.04;52.31
29383;BME280;16365;51.598;7.668;2022-12-24T04:29:56;100179.88;;;16.06;52.29
29383;BME280;16365;51.598;7.668;2022-12-24T04:32:24;100179.50;;;16.08;52.26
29383;BME280;16365;51.598;7.668;2022-12-24T04:34:51;100188.75;;;16.12;52.48
29383;BME280;16365;51.598;7.668;2022-12-24T04:37:17;100186.38;;;16.14;52.37
29383;BME280;16365;51.598;7.668;2022-12-24T04:39:44;100187.63;;;16.16;52.08
29383;BME280;16365;51.598;7.668;2022-12-24T04:42:10;100185.63;;;16.17;52.56
29383;BME280;16365;51.598;7.668;2022-12-24T04:44:36;100184.44;;;16.18;52.34
29383;BME280;16365;51.598;7.668;2022-12-24T04:47:03;100186.84;;;16.19;52.47
29383;BME280;16365;51.598;7.668;2022-12-24T04:49:29;100194.88;;;16.21;52.22
29383;BME280;16365;51.598;7.668;2022-12-24T04:51:56;100186.09;;;16.23;52.49
29383;BME280;16365;51.598;7.668;2022-12-24T04:54:22;100201.31;;;16.25;52.49
29383;BME280;16365;51.598;7.668;2022-12-24T04:56:48;100199.75;;;16.28;52.35
29383;BME280;16365;51.598;7.668;2022-12-24T04:59:15;100200.56;;;16.28;52.38
29383;BME280;16365;51.598;7.668;2022-12-24T05:01:41;100185.00;;;16.31;52.51
29383;BME280;16365;51.598;7.668;2022-12-24T05:04:08;100195.81;;;16.32;52.27
29383;BME280;16365;51.598;7.668;2022-12-24T05:06:36;100191.81;;;16.33;52.36
29383;BME280;16365;51.598;7.668;2022-12-24T05:09:02;100188.66;;;16.35;52.39
29383;BME280;16365;51.598;7.668;2022-12-24T05:11:29;100198.66;;;16.36;52.37
29383;BME280;16365;51.598;7.668;2022-12-24T05:13:55;100197.47;;;16.37;52.50
29383;BME280;16365;51.598;7.668;2022-12-24T05:16:23;100197.47;;;16.37;52.42
29383;BME280;16365;51.598;7.668;2022-12-24T05:18:51;100208.66;;;16.37;52.43
29383;BME280;16365;51.598;7.668;2022-12-24T05:21:19;100206.66;;;16.37;52.15
29383;BME280;16365;51.598;7.668;2022-12-24T05:23:47;100209.47;;;16.37;52.40
29383;BME280;16365;51.598;7.668;2022-12-24T05:26:36;100217.84;;;16.37;52.49
29383;BME280;16365;51.598;7.668;2022-12-24T05:29:05;100212.25;;;16.37;52.07
29383;BME280;16365;51.598;7.668;2022-12-24T05:31:33;100217.84;;;16.37;52.30
29383;BME280;16365;51.598;7.668;2022-12-24T05:34:00;100215.88;;;16.38;52.49
29383;BME280;16365;51.598;7.668;2022-12-24T05:36:27;100218.66;;;16.38;52.45
29383;BME280;16365;51.598;7.668;2022-12-24T05:38:53;100220.28;;;16.39;52.46
29383;BME280;16365;51.598;7.668;2022-12-24T05:41:20;100224.69;;;16.40;52.56
29383;BME280;16365;51.598;7.668;2022-12-24T05:43:46;100219.09;;;16.40;52.50
29383;BME280;16365;51.598;7.668;2022-12-24T05:46:16;100213.50;;;16.40;52.42
29383;BME280;16365;51.598;7.668;2022-12-24T05:48:44;100215.91;;;16.41;52.56
29383;BME280;16365;51.598;7.668;2022-12-24T05:51:12;100217.47;;;16.39;52.39
29383;BME280;16365;51.598;7.668;2022-12-24T05:53:40;100226.31;;;16.41;52.62
29383;BME280;16365;51.598;7.668;2022-12-24T05:56:09;100225.88;;;16.39;52.41
29383;BME280;16365;51.598;7.668;2022-12-24T05:58:37;100234.69;;;16.41;52.63
29383;BME280;16365;51.598;7.668;2022-12-24T06:01:04;100235.91;;;16.40;52.69
29383;BME280;16365;51.598;7.668;2022-12-24T06:03:31;100237.50;;;16.41;52.75
29383;BME280;16365;51.598;7.668;2022-12-24T06:06:03;100233.91;;;16.40;52.80
29383;BME280;16365;51.598;7.668;2022-12-24T06:08:32;100236.69;;;16.40;52.58
29383;BME280;16365;51.598;7.668;2022-12-24T06:11:00;100239.50;;;16.40;52.58
29383;BME280;16365;51.598;7.668;2022-12-24T06:13:27;100240.31;;;16.41;52.94
29383;BME280;16365;51.598;7.668;2022-12-24T06:15:58;100240.69;;;16.39;52.65
29383;BME280;16365;51.598;7.668;2022-12-24T06:18:25;100244.66;;;16.38;52.53
29383;BME280;16365;51.598;7.668;2022-12-24T06:20:53;100239.44;;;16.37;52.92
29383;BME280;16365;51.598;7.668;2022-12-24T06:23:20;100245.44;;;16.39;53.40
29383;BME280;16365;51.598;7.668;2022-12-24T06:25:47;100247.09;;;16.40;53.02
29383;BME280;16365;51.598;7.668;2022-12-24T06:28:14;100239.84;;;16.39;53.16
29383;BME280;16365;51.598;7.668;2022-12-24T06:30:44;100253.44;;;16.37;53.17
29383;BME280;16365;51.598;7.668;2022-12-24T06:33:11;100246.22;;;16.36;53.23
29383;BME280;16365;51.598;7.668;2022-12-24T06:35:38;100256.97;;;16.34;53.23
29383;BME280;16365;51.598;7.668;2022-12-24T06:38:04;100254.16;;;16.34;52.86
29383;BME280;16365;51.598;7.668;2022-12-24T06:40:31;100260.97;;;16.33;53.18
29383;BME280;16365;51.598;7.668;2022-12-24T06:42:57;100264.16;;;16.31;52.92
29383;BME280;16365;51.598;7.668;2022-12-24T06:45:24;100270.13;;;16.30;52.95
29383;BME280;16365;51.598;7.668;2022-12-24T06:47:50;100270.13;;;16.30;53.52
29383;BME280;16365;51.598;7.668;2022-12-24T06:50:17;100272.47;;;16.28;53.06
29383;BME280;16365;51.598;7.668;2022-12-24T06:52:44;100271.69;;;16.27;53.02
29383;BME280;16365;51.598;7.668;2022-12-24T06:55:10;100272.88;;;16.26;53.25
29383;BME280;16365;51.598;7.668;2022-12-24T06:57:37;100285.66;;;16.27;53.10
29383;BME280;16365;51.598;7.668;2022-12-24T07:00:04;100289.25;;;16.28;53.31
29383;BME280;16365;51.598;7.668;2022-12-24T07:02:31;100292.06;;;16.28;53.33
29383;BME280;16365;51.598;7.668;2022-12-24T07:04:58;100296.47;;;16.29;53.17
29383;BME280;16365;51.598;7.668;2022-12-24T07:07:24;100291.69;;;16.29;53.03
29383;BME280;16365;51.598;7.668;2022-12-24T07:09:50;100300.91;;;16.30;53.34
29383;BME280;16365;51.598;7.668;2022-12-24T07:12:17;100308.09;;;16.31;53.29
29383;BME280;16365;51.598;7.668;2022-12-24T07:14:44;100304.13;;;16.32;53.23
29383;BME280;16365;51.598;7.668;2022-12-24T07:17:10;100308.91;;;16.31;52.97
29383;BME280;16365;51.598;7.668;2022-12-24T07:19:37;100299.31;;;16.32;52.73
29383;BME280;16365;51.598;7.668;2022-12-24T07:22:03;100312.13;;;16.33;52.82
29383;BME280;16365;51.598;7.668;2022-12-24T07:24:37;100315.38;;;16.35;52.78
29383;BME280;16365;51.598;7.668;2022-12-24T07:27:03;100316.16;;;16.36;53.17
29383;BME280;16365;51.598;7.668;2022-12-24T07:29:29;100308.59;;;16.36;52.59
29383;BME280;16365;51.598;7.668;2022-12-24T07:31:56;100313.78;;;16.38;53.05
29383;BME280;16365;51.598;7.668;2022-12-24T07:34:23;100317.38;;;16.38;52.74
29383;BME280;16365;51.598;7.668;2022-12-24T07:36:49;100327.44;;;16.39;52.66
29383;BME280;16365;51.598;7.668;2022-12-24T07:39:16;100323.44;;;16.40;52.76
29383;BME280;16365;51.598;7.668;2022-12-24T07:41:42;100325.03;;;16.41;52.74
29383;BME280;16365;51.598;7.668;2022-12-24T07:44:12;100324.25;;;16.41;52.52
29383;BME280;16365;51.598;7.668;2022-12-24T07:46:39;100331.88;;;16.44;53.05
29383;BME280;16365;51.598;7.668;2022-12-24T07:49:06;100337.50;;;16.44;52.58
29383;BME280;16365;51.598;7.668;2022-12-24T07:51:33;100335.09;;;16.46;52.47
29383;BME280;16365;51.598;7.668;2022-12-24T07:53:59;100337.50;;;16.48;52.41
29383;BME280;16365;51.598;7.668;2022-12-24T07:56:26;100334.72;;;16.48;52.43
29383;BME280;16365;51.598;7.668;2022-12-24T07:58:52;100343.91;;;16.48;52.34
29383;BME280;16365;51.598;7.668;2022-12-24T08:01:19;100345.56;;;16.49;52.61
29383;BME280;16365;51.598;7.668;2022-12-24T08:03:45;100347.16;;;16.50;52.33
29383;BME280;16365;51.598;7.668;2022-12-24T08:06:12;100344.38;;;16.50;52.57
29383;BME280;16365;51.598;7.668;2022-12-24T08:08:39;100353.56;;;16.51;52.39
29383;BME280;16365;51.598;7.668;2022-12-24T08:11:06;100351.56;;;16.51;52.27
29383;BME280;16365;51.598;7.668;2022-12-24T08:13:32;100355.97;;;16.52;52.41
29383;BME280;16365;51.598;7.668;2022-12-24T08:15:59;100359.56;;;16.53;52.22
29383;BME280;16365;51.598;7.668;2022-12-24T08:18:26;100375.22;;;16.54;52.33
29383;BME280;16365;51.598;7.668;2022-12-24T08:20:52;100375.22;;;16.54;52.18
29383;BME280;16365;51.598;7.668;2022-12-24T08:23:18;100390.81;;;16.55;52.11
29383;BME280;16365;51.598;7.668;2022-12-24T08:25:47;100389.19;;;16.54;52.01
29383;BME280;16365;51.598;7.668;2022-12-24T08:28:15;100399.22;;;16.55;52.28
29383;BME280;16365;51.598;7.668;2022-12-24T08:30:42;100404.03;;;16.58;52.01
29383;BME280;16365;51.598;7.668;2022-12-24T08:33:09;100408.88;;;16.61;52.22
29383;BME280;16365;51.598;7.668;2022-12-24T08:35:36;100394.91;;;16.61;52.35
29383;BME280;16365;51.598;7.668;2022-12-24T08:38:02;100407.69;;;16.62;51.84
29383;BME280;16365;51.598;7.668;2022-12-24T08:40:28;100403.72;;;16.63;51.98
29383;BME280;16365;51.598;7.668;2022-12-24T08:42:55;100414.91;;;16.63;52.06
29383;BME280;16365;51.598;7.668;2022-12-24T08:45:21;100410.16;;;16.63;51.90
29383;BME280;16365;51.598;7.668;2022-12-24T08:47:48;100416.16;;;16.65;52.14
29383;BME280;16365;51.598;7.668;2022-12-24T08:50:15;100419.75;;;16.66;51.86
29383;BME280;16365;51.598;7.668;2022-12-24T08:52:41;100423.38;;;16.66;51.57
29383;BME280;16365;51.598;7.668;2022-12-24T08:55:08;100428.59;;;16.68;51.50
29383;BME280;16365;51.598;7.668;2022-12-24T08:57:35;100427.41;;;16.69;51.57
29383;BME280;16365;51.598;7.668;2022-12-24T09:00:04;100428.22;;;16.69;51.58
29383;BME280;16365;51.598;7.668;2022-12-24T09:02:31;100439.88;;;16.72;51.84
29383;BME280;16365;51.598;7.668;2022-12-24T09:04:58;100439.50;;;16.73;51.97
29383;BME280;16365;51.598;7.668;2022-12-24T09:07:24;100443.94;;;16.74;51.51
29383;BME280;16365;51.598;7.668;2022-12-24T09:09:50;100449.94;;;16.76;51.97
29383;BME280;16365;51.598;7.668;2022-12-24T09:12:17;100458.34;;;16.76;51.73
29383;BME280;16365;51.598;7.668;2022-12-24T09:14:43;100457.94;;;16.78;51.89
29383;BME280;16365;51.598;7.668;2022-12-24T09:17:10;100466.34;;;16.78;51.51
29383;BME280;16365;51.598;7.668;2022-12-24T09:19:36;100466.81;;;16.80;51.46
29383;BME280;16365;51.598;7.668;2022-12-24T09:22:04;100468.03;;;16.82;51.64
29383;BME280;16365;51.598;7.668;2022-12-24T09:24:30;100481.22;;;16.82;51.81
29383;BME280;16365;51.598;7.668;2022-12-24T09:26:57;100486.47;;;16.83;51.39
29383;BME280;16365;51.598;7.668;2022-12-24T09:29:24;100498.88;;;16.86;51.14
29383;BME280;16365;51.598;7.668;2022-12-24T09:31:50;100506.50;;;16.85;51.47
29383;BME280;16365;51.598;7.668;2022-12-24T09:34:17;100502.50;;;16.86;51.55
29383;BME280;16365;51.598;7.668;2022-12-24T09:36:43;100501.31;;;16.87;51.22
29383;BME280;16365;51.598;7.668;2022-12-24T09:39:11;100515.75;;;16.89;51.59
29383;BME280;16365;51.598;7.668;2022-12-24T09:41:49;100528.16;;;16.88;51.35
29383;BME280;16365;51.598;7.668;2022-12-24T09:45:43;100524.56;;;16.91;51.15
29383;BME280;16365;51.598;7.668;2022-12-24T09:47:52;100534.31;;;16.98;51.50
29383;BME280;16365;51.598;7.668;2022-12-24T09:50:29;100529.94;;;17.00;51.18
29383;BME280;16365;51.598;7.668;2022-12-24T09:53:00;100536.78;;;17.03;51.47
29383;BME280;16365;51.598;7.668;2022-12-24T09:55:32;100533.22;;;17.06;51.51
29383;BME280;16365;51.598;7.668;2022-12-24T09:58:01;100537.69;;;17.10;51.35
29383;BME280;16365;51.598;7.668;2022-12-24T10:00:34;100533.34;;;17.13;51.40
29383;BME280;16365;51.598;7.668;2022-12-24T10:03:01;100538.16;;;17.16;51.40
29383;BME280;16365;51.598;7.668;2022-12-24T10:06:03;100541.34;;;17.14;50.85
29383;BME280;16365;51.598;7.668;2022-12-24T10:08:47;100539.81;;;17.17;50.94
29383;BME280;16365;51.598;7.668;2022-12-24T10:14:42;100554.97;;;17.16;51.09
29383;BME280;16365;51.598;7.668;2022-12-24T10:17:29;100554.97;;;17.16;50.88
29383;BME280;16365;51.598;7.668;2022-12-24T10:20:16;100557.41;;;17.17;50.83
29383;BME280;16365;51.598;7.668;2022-12-24T10:28:20;100561.09;;;17.21;50.95
29383;BME280;16365;51.598;7.668;2022-12-24T10:30:49;100565.50;;;17.23;51.28
29383;BME280;16365;51.598;7.668;2022-12-24T10:33:35;100559.91;;;17.23;50.88
29383;BME280;16365;51.598;7.668;2022-12-24T10:36:04;100566.38;;;17.27;50.84
29383;BME280;16365;51.598;7.668;2022-12-24T10:38:37;100558.78;;;17.31;51.05
29383;BME280;16365;51.598;7.668;2022-12-24T10:41:04;100558.44;;;17.32;50.67
29383;BME280;16365;51.598;7.668;2022-12-24T10:43:32;100560.06;;;17.33;50.78
29383;BME280;16365;51.598;7.668;2022-12-24T10:46:01;100559.31;;;17.36;50.97
29383;BME280;16365;51.598;7.668;2022-12-24T10:51:16;100563.34;;;17.39;50.60
29383;BME280;16365;51.598;7.668;2022-12-24T10:54:00;100558.53;;;17.39;50.62
29383;BME280;16365;51.598;7.668;2022-12-24T10:56:39;100553.38;;;17.41;50.50
29383;BME280;16365;51.598;7.668;2022-12-24T10:59:26;100557.41;;;17.44;50.69
29383;BME280;16365;51.598;7.668;2022-12-24T11:01:57;100551.47;;;17.49;50.87
29383;BME280;16365;51.598;7.668;2022-12-24T11:04:28;100552.31;;;17.53;50.94
29383;BME280;16365;51.598;7.668;2022-12-24T11:07:04;100548.31;;;17.54;50.09
29383;BME280;16365;51.598;7.668;2022-12-24T11:09:39;100549.19;;;17.58;49.85
29383;BME280;16365;51.598;7.668;2022-12-24T11:12:17;100554.84;;;17.62;49.84
29383;BME280;16365;51.598;7.668;2022-12-24T11:14:44;100546.09;;;17.67;50.58
29383;BME280;16365;51.598;7.668;2022-12-24T11:17:21;100537.31;;;17.68;50.38
29383;BME280;16365;51.598;7.668;2022-12-24T11:19:50;100542.25;;;17.75;50.34
29383;BME280;16365;51.598;7.668;2022-12-24T11:22:21;100544.72;;;17.80;49.94
29383;BME280;16365;51.598;7.668;2022-12-24T11:25:20;100539.53;;;17.82;50.02
29383;BME280;16365;51.598;7.668;2022-12-24T11:27:48;100547.19;;;17.89;49.97
29383;BME280;16365;51.598;7.668;2022-12-24T11:30:21;100544.84;;;17.91;49.71
29383;BME280;16365;51.598;7.668;2022-12-24T11:35:27;100544.56;;;18.00;49.85
29383;BME280;16365;51.598;7.668;2022-12-24T11:40:34;100544.56;;;18.00;49.31
29383;BME280;16365;51.598;7.668;2022-12-24T11:43:03;100543.75;;;17.99;49.25
29383;BME280;16365;51.598;7.668;2022-12-24T11:45:51;100541.31;;;17.97;48.78
29383;BME280;16365;51.598;7.668;2022-12-24T11:48:28;100533.34;;;18.03;49.53
29383;BME280;16365;51.598;7.668;2022-12-24T11:53:37;100552.28;;;18.10;48.82
29383;BME280;16365;51.598;7.668;2022-12-24T11:56:23;100542.72;;;18.14;49.14
29383;BME280;16365;51.598;7.668;2022-12-24T11:58:59;100552.78;;;18.19;48.52
29383;BME280;16365;51.598;7.668;2022-12-24T12:01:54;100550.84;;;18.23;48.66
29383;BME280;16365;51.598;7.668;2022-12-24T12:04:23;100541.22;;;18.24;49.07
29383;BME280;16365;51.598;7.668;2022-12-24T12:06:56;100545.22;;;18.23;48.68
29383;BME280;16365;51.598;7.668;2022-12-24T12:09:38;100550.00;;;18.22;48.46
29383;BME280;16365;51.598;7.668;2022-12-24T12:14:42;100559.63;;;18.21;48.36
29383;BME280;16365;51.598;7.668;2022-12-24T12:17:31;100559.22;;;18.19;48.28
29383;BME280;16365;51.598;7.668;2022-12-24T12:23:12;100564.47;;;18.24;48.13
29383;BME280;16365;51.598;7.668;2022-12-24T12:25:56;100568.00;;;18.18;48.13
29383;BME280;16365;51.598;7.668;2022-12-24T12:28:29;100578.84;;;18.19;48.83
29383;BME280;16365;51.598;7.668;2022-12-24T12:33:48;100573.13;;;18.09;48.06
29383;BME280;16365;51.598;7.668;2022-12-24T12:36:20;100569.47;;;18.05;48.31
29383;BME280;16365;51.598;7.668;2022-12-24T12:38:48;100568.59;;;18.01;48.27
29383;BME280;16365;51.598;7.668;2022-12-24T12:41:24;100575.75;;;17.94;47.89
29383;BME280;16365;51.598;7.668;2022-12-24T12:49:47;100588.22;;;17.70;48.03
29383;BME280;16365;51.598;7.668;2022-12-24T12:58:20;100601.38;;;17.66;48.16
29383;BME280;16365;51.598;7.668;2022-12-24T13:00:53;100594.97;;;17.66;48.34
29383;BME280;16365;51.598;7.668;2022-12-24T13:03:40;100600.94;;;17.64;48.30
29383;BME280;16365;51.598;7.668;2022-12-24T13:06:35;100608.53;;;17.64;48.25
29383;BME280;16365;51.598;7.668;2022-12-24T13:09:20;100609.78;;;17.66;48.60
29383;BME280;16365;51.598;7.668;2022-12-24T13:14:56;100616.94;;;17.64;47.73
29383;BME280;16365;51.598;7.668;2022-12-24T13:17:38;100622.19;;;17.65;47.68
29383;BME280;16365;51.598;7.668;2022-12-24T13:25:29;100629.03;;;17.68;47.95
29383;BME280;16365;51.598;7.668;2022-12-24T13:30:51;100641.44;;;17.67;47.91
29383;BME280;16365;51.598;7.668;2022-12-24T13:36:10;100641.31;;;17.60;47.54
29383;BME280;16365;51.598;7.668;2022-12-24T13:38:47;100643.28;;;17.56;47.59
29383;BME280;16365;51.598;7.668;2022-12-24T13:47:14;100644.22;;;17.40;47.76
29383;BME280;16365;51.598;7.668;2022-12-24T13:49:46;100655.44;;;17.40;47.94
29383;BME280;16365;51.598;7.668;2022-12-24T13:52:17;100659.38;;;17.36;48.16
29383;BME280;16365;51.598;7.668;2022-12-24T13:57:25;100660.94;;;17.33;48.24
29383;BME280;16365;51.598;7.668;2022-12-24T14:02:32;100677.00;;;17.36;48.07
29383;BME280;16365;51.598;7.668;2022-12-24T14:05:03;100673.41;;;17.36;48.17
29383;BME280;16365;51.598;7.668;2022-12-24T14:07:34;100665.00;;;17.36;47.79
29383;BME280;16365;51.598;7.668;2022-12-24T14:10:02;100669.41;;;17.37;48.11
29383;BME280;16365;51.598;7.668;2022-12-24T14:12:33;100663.34;;;17.35;47.65
29383;BME280;16365;51.598;7.668;2022-12-24T14:15:56;100672.88;;;17.30;47.06
29383;BME280;16365;51.598;7.668;2022-12-24T14:18:27;100669.28;;;17.30;47.35
29383;BME280;16365;51.598;7.668;2022-12-24T14:20:56;100669.59;;;17.25;47.20
29383;BME280;16365;51.598;7.668;2022-12-24T14:23:32;100673.50;;;17.20;47.27
29383;BME280;16365;51.598;7.668;2022-12-24T14:26:01;100668.28;;;17.18;47.31
29383;BME280;16365;51.598;7.668;2022-12-24T14:28:34;100680.19;;;17.12;46.92
29383;BME280;16365;51.598;7.668;2022-12-24T14:31:04;100687.72;;;17.08;47.39
29383;BME280;16365;51.598;7.668;2022-12-24T14:33:33;100691.66;;;17.03;47.09
29383;BME280;16365;51.598;7.668;2022-12-24T14:36:01;100689.94;;;16.99;47.34